createdAt,value
2018-06-09T00:00:55.359Z,3.60
2018-06-09T00:03:24.541Z,3.10
2018-06-09T00:05:53.845Z,3.00
2018-06-09T00:08:23.178Z,3.73
2018-06-09T00:10:52.542Z,3.70
2018-06-09T00:13:22.016Z,3.67
2018-06-09T00:15:51.250Z,3.40
2018-06-09T00:18:20.542Z,3.83
2018-06-09T00:20:50.197Z,3.47
2018-06-09T00:23:19.608Z,3.60
2018-06-09T00:25:49.126Z,3.17
2018-06-09T00:28:18.316Z,3.60
2018-06-09T00:30:47.600Z,3.57
2018-06-09T00:33:16.822Z,3.80
2018-06-09T00:35:46.185Z,3.47
2018-06-09T00:38:15.624Z,3.43
2018-06-09T00:40:44.838Z,3.13
2018-06-09T00:43:14.217Z,4.30
2018-06-09T00:45:43.573Z,3.90
2018-06-09T00:48:12.945Z,4.03
2018-06-09T00:50:42.285Z,3.53
2018-06-09T00:53:11.628Z,3.33
2018-06-09T00:55:40.856Z,3.73
2018-06-09T00:58:09.966Z,3.37
2018-06-09T01:00:39.163Z,3.60
2018-06-09T01:03:08.523Z,3.80
2018-06-09T01:05:37.845Z,3.40
2018-06-09T01:08:07.105Z,3.97
2018-06-09T01:10:36.254Z,3.67
2018-06-09T01:13:05.610Z,3.80
2018-06-09T01:15:34.948Z,3.97
2018-06-09T01:18:04.283Z,3.50
2018-06-09T01:20:33.560Z,4.27
2018-06-09T01:23:02.817Z,3.87
2018-06-09T01:25:32.029Z,4.07
2018-06-09T01:28:01.196Z,4.30
2018-06-09T01:30:30.619Z,3.30
2018-06-09T01:32:59.813Z,3.87
2018-06-09T01:35:29.041Z,4.77
2018-06-09T01:37:58.194Z,3.50
2018-06-09T01:40:27.533Z,4.13
2018-06-09T01:42:56.949Z,3.87
2018-06-09T01:45:26.580Z,3.37
2018-06-09T01:47:56.020Z,3.77
2018-06-09T01:50:25.396Z,4.17
2018-06-09T01:52:54.709Z,4.20
2018-06-09T01:55:24.047Z,3.40
2018-06-09T01:57:53.264Z,4.20
2018-06-09T02:00:22.670Z,4.37
2018-06-09T02:02:51.934Z,4.13
2018-06-09T02:05:21.253Z,4.50
2018-06-09T02:07:50.429Z,4.40
2018-06-09T02:10:19.564Z,4.20
2018-06-09T02:12:48.930Z,4.00
2018-06-09T02:15:18.266Z,4.37
2018-06-09T02:17:47.562Z,4.00
2018-06-09T02:20:16.868Z,3.70
2018-06-09T02:22:46.039Z,3.97
2018-06-09T02:25:15.451Z,3.73
2018-06-09T02:27:44.507Z,3.80
2018-06-09T02:30:13.949Z,4.57
2018-06-09T02:32:43.366Z,4.47
2018-06-09T02:35:12.631Z,4.17
2018-06-09T02:37:41.828Z,3.50
2018-06-09T02:40:11.047Z,4.40
2018-06-09T02:42:40.118Z,4.20
2018-06-09T02:45:09.340Z,4.20
2018-06-09T02:47:38.712Z,3.30
2018-06-09T02:50:08.052Z,4.50
2018-06-09T02:52:37.287Z,3.97
2018-06-09T02:55:06.486Z,4.57
2018-06-09T02:57:35.605Z,4.77
2018-06-09T03:00:04.836Z,4.20
2018-06-09T03:02:33.913Z,3.93
2018-06-09T03:05:03.158Z,3.77
2018-06-09T03:07:32.523Z,4.73
2018-06-09T03:10:01.635Z,4.67
2018-06-09T03:12:30.913Z,4.40
2018-06-09T03:15:00.200Z,3.90
2018-06-09T03:17:29.412Z,4.47
2018-06-09T03:19:58.706Z,4.37
2018-06-09T03:22:28.122Z,4.53
2018-06-09T03:24:57.216Z,4.80
2018-06-09T03:27:26.510Z,4.90
2018-06-09T03:29:55.589Z,4.57
2018-06-09T03:32:24.824Z,4.07
2018-06-09T03:34:54.199Z,4.07
2018-06-09T03:37:23.531Z,4.23
2018-06-09T03:39:52.772Z,5.00
2018-06-09T03:42:22.021Z,4.47
2018-06-09T03:44:51.391Z,5.20
2018-06-09T03:47:20.704Z,5.20
2018-06-09T03:49:49.774Z,4.47
2018-06-09T03:52:19.008Z,5.00
2018-06-09T03:54:48.396Z,5.10
2018-06-09T03:57:17.708Z,5.47
2018-06-09T03:59:46.994Z,5.53
2018-06-09T04:05:11.242Z,5.17
2018-06-09T04:07:39.746Z,4.50
2018-06-09T04:10:08.211Z,5.17
2018-06-09T04:12:36.586Z,4.27
2018-06-09T04:15:05.182Z,5.40
2018-06-09T04:17:33.866Z,5.50
2018-06-09T04:20:02.288Z,5.80
2018-06-09T04:22:30.828Z,4.60
2018-06-09T04:24:59.222Z,4.30
2018-06-09T04:27:27.736Z,4.73
2018-06-09T04:29:56.630Z,4.47
2018-06-09T04:32:25.231Z,4.97
2018-06-09T04:34:53.707Z,4.10
2018-06-09T04:37:22.191Z,5.03
2018-06-09T04:39:50.818Z,5.07
2018-06-09T04:42:19.274Z,4.57
2018-06-09T04:44:47.742Z,4.77
2018-06-09T04:47:16.208Z,4.93
2018-06-09T04:49:44.633Z,4.03
2018-06-09T04:52:13.238Z,4.90
2018-06-09T04:54:41.646Z,4.63
2018-06-09T04:57:10.176Z,4.80
2018-06-09T04:59:38.687Z,5.10
2018-06-09T05:02:07.172Z,4.77
2018-06-09T05:04:35.594Z,4.33
2018-06-09T05:07:04.084Z,4.73
2018-06-09T05:09:32.550Z,4.53
2018-06-09T05:12:01.098Z,4.20
2018-06-09T05:14:29.497Z,4.60
2018-06-09T05:16:59.647Z,4.90
2018-06-09T16:49:39.525Z,3.77
2018-06-09T16:52:14.724Z,4.07
2018-06-09T16:54:48.929Z,3.53
2018-06-09T17:44:06.925Z,4.33
2018-06-09T17:52:39.222Z,4.73
2018-06-09T17:55:51.417Z,4.30
